This is the latest recevied weather packets stored in our database for station/object W4KAB. If no packets are shown the sender has not sent any weather packets the latest 10 day(s).
| Time | Temp. | Humidity | Pressure | Rain* | Wind** | Luminosity | Snow |
|---|---|---|---|---|---|---|---|
| 1778004050 | 25.56° C | 38% | 1017 hPa | 0 mm | - | 658 W/m² | - |
| 1778003750 | 25.56° C | 37% | 1016.8 hPa | 0 mm | - | 790 W/m² | - |
| 1778003447 | 25.56° C | 39% | 1016.9 hPa | 0 mm | - | 532 W/m² | - |
| 1778003144 | 25° C | 40% | 1017 hPa | 0 mm | - | 550 W/m² | - |
| 1778002840 | 25° C | 38% | 1016.9 hPa | 0 mm | - | 569 W/m² | - |
| 1778002537 | 26.11° C | 38% | 1016.7 hPa | 0 mm | - | 474 W/m² | - |
| 1778002234 | 25.56° C | 37% | 1016.8 hPa | 0 mm | - | 754 W/m² | - |
| 1778001931 | 25.56° C | 43% | 1016.9 hPa | 0 mm | - | 750 W/m² | - |
| 1778001628 | 25.56° C | 40% | 1016.8 hPa | 0 mm | - | 772 W/m² | - |
| 1778001323 | 25.56° C | 42% | 1017 hPa | 0 mm | - | 714 W/m² | - |
| 1778001020 | 25° C | 41% | 1016.7 hPa | 0 mm | - | 698 W/m² | - |
| 1778000717 | 25° C | 44% | 1017.1 hPa | 0 mm | - | 722 W/m² | - |
| 1778000413 | 24.44° C | 43% | 1017.1 hPa | 0 mm | - | 676 W/m² | - |
| 1778000108 | 24.44° C | 44% | 1017.1 hPa | 0 mm | - | 610 W/m² | - |
| 1777999804 | 23.89° C | 44% | 1017.4 hPa | 0 mm | - | 615 W/m² | - |
| 1777999500 | 24.44° C | 45% | 1017.3 hPa | 0 mm | - | 595 W/m² | - |
| 1777999198 | 23.89° C | 45% | 1017.7 hPa | 0 mm | - | 556 W/m² | - |
| 1777998897 | 23.89° C | 43% | 1017.5 hPa | 0 mm | - | 545 W/m² | - |
| 1777998596 | 23.89° C | 44% | 1017.7 hPa | 0 mm | - | 506 W/m² | - |
| 1777998291 | 23.89° C | 44% | 1017.7 hPa | 0 mm | - | 468 W/m² | - |
| 1777997988 | 23.89° C | 46% | 1017.8 hPa | 0 mm | - | 412 W/m² | - |
| 1777997685 | 23.33° C | 42% | 1017.5 hPa | 0 mm | - | 483 W/m² | - |
| 1777997382 | 22.78° C | 46% | 1017.7 hPa | 0 mm | - | 488 W/m² | - |
| 1777997080 | 23.33° C | 45% | 1017.9 hPa | 0 mm | - | 495 W/m² | - |
| 1777996776 | 23.33° C | 45% | 1018 hPa | 0 mm | - | 499 W/m² | - |
* Rain latest hour (hover to see other rain measurements)
** Current wind speed in m/s (hover to see current wind gust speed)